Time;durP1;ratioP1;P1;durP2;ratioP2;P2;SDS_P1;SDS_P2;PMS_P1;PMS_P2;Temp;Humidity;BMP_temperature;BMP_pressure;BME280_temperature;BME280_humidity;BME280_pressure;Samples;Min_cycle;Max_cycle;Signal;HPM_P1;HPM_P2
2022/05/21 00:00:37;;;;;;;;;2.75;2.00;;;;;18.30;62.98;101605.59;5051980;28;45593;-86
2022/05/21 00:03:05;;;;;;;;;3.25;3.00;;;;;18.27;62.44;101613.84;5033686;28;46144;-81
2022/05/21 00:05:33;;;;;;;;;2.00;1.00;;;;;18.15;62.96;101599.00;5051537;28;45720;-85
2022/05/21 00:07:59;;;;;;;;;2.00;1.00;;;;;18.14;62.84;101607.91;5051781;28;45718;-85
2022/05/21 00:10:26;;;;;;;;;2.00;2.00;;;;;18.13;62.54;101621.34;5042872;28;46492;-85
2022/05/21 00:12:52;;;;;;;;;2.00;1.00;;;;;18.08;63.29;101616.44;5049349;28;48271;-82
2022/05/21 00:15:22;;;;;;;;;2.50;2.50;;;;;17.98;63.21;101612.88;5051850;28;46367;-86
2022/05/21 00:17:48;;;;;;;;;2.25;2.00;;;;;17.99;63.36;101615.41;5052059;28;45758;-87
2022/05/21 00:22:58;;;;;;;;;3.00;3.00;;;;;17.87;63.64;101620.91;5052329;28;46045;-87
2022/05/21 00:25:25;;;;;;;;;2.00;2.00;;;;;17.85;63.41;101614.91;5051441;28;45715;-86
2022/05/21 00:27:51;;;;;;;;;4.25;3.50;;;;;17.82;63.86;101612.50;5053010;28;45483;-81
2022/05/21 00:30:16;;;;;;;;;2.25;2.25;;;;;17.81;63.37;101616.16;5034070;28;48692;-84
2022/05/21 00:32:42;;;;;;;;;5.25;3.00;;;;;17.80;63.94;101625.06;5051906;28;45576;-83
2022/05/21 00:35:08;;;;;;;;;2.00;1.75;;;;;17.74;63.76;101612.34;5052025;28;45719;-84
2022/05/21 00:37:34;;;;;;;;;2.25;2.00;;;;;17.66;63.53;101609.47;5051936;28;45617;-80
2022/05/21 00:39:59;;;;;;;;;3.00;3.00;;;;;17.63;63.63;101600.00;5052162;28;46561;-81
2022/05/21 00:42:25;;;;;;;;;4.50;3.25;;;;;17.73;63.61;101621.25;5027935;28;46417;-82
2022/05/21 00:44:50;;;;;;;;;3.75;3.00;;;;;17.69;64.16;101627.78;5045210;28;45815;-81
2022/05/21 00:47:17;;;;;;;;;2.25;1.50;;;;;17.62;64.07;101611.56;5051567;28;45711;-80
2022/05/21 00:49:44;;;;;;;;;2.00;2.00;;;;;17.61;63.67;101610.72;5052387;28;45750;-84
2022/05/21 00:52:17;;;;;;;;;3.00;2.00;;;;;17.68;63.92;101623.44;5051972;28;46243;-83
2022/05/21 00:54:52;;;;;;;;;4.25;3.00;;;;;17.69;63.79;101615.38;5051963;28;46055;-85
2022/05/21 00:57:24;;;;;;;;;3.00;3.00;;;;;17.66;64.33;101618.28;5039547;28;45729;-83
2022/05/21 00:59:56;;;;;;;;;3.00;2.25;;;;;17.65;63.80;101621.06;5052708;28;47277;-86
2022/05/21 01:02:28;;;;;;;;;3.25;2.75;;;;;17.61;63.93;101613.38;5053068;28;45940;-84
2022/05/21 01:04:57;;;;;;;;;4.00;2.00;;;;;17.59;64.49;101615.31;5053354;28;45877;-86
2022/05/21 01:07:25;;;;;;;;;3.50;2.50;;;;;17.57;63.95;101624.31;5043456;28;45675;-84
2022/05/21 01:09:53;;;;;;;;;2.50;2.00;;;;;17.46;64.38;101609.34;5051292;28;45665;-81
2022/05/21 01:12:21;;;;;;;;;3.75;3.00;;;;;17.41;64.05;101608.03;5035527;28;47500;-86
2022/05/21 01:14:50;;;;;;;;;2.00;2.00;;;;;17.32;64.20;101599.06;5053360;28;45643;-84
2022/05/21 01:17:19;;;;;;;;;2.25;2.00;;;;;17.35;64.44;101609.38;5054463;28;45744;-85
2022/05/21 01:20:19;;;;;;;;;2.00;2.00;;;;;17.37;64.54;101614.56;5056047;28;45797;-84
2022/05/21 01:22:55;;;;;;;;;2.25;1.00;;;;;17.30;64.14;101610.75;4973780;28;47624;-87
2022/05/21 01:25:24;;;;;;;;;4.00;3.50;;;;;17.33;64.53;101624.56;4961825;28;45843;-87
2022/05/21 01:27:53;;;;;;;;;3.00;3.00;;;;;17.21;64.63;101612.34;4956281;28;45990;-84
2022/05/21 01:30:22;;;;;;;;;3.75;3.00;;;;;17.24;64.82;101620.03;4966021;28;45708;-83
2022/05/21 01:32:49;;;;;;;;;2.00;2.00;;;;;17.20;64.55;101611.50;4985593;28;46003;-85
2022/05/21 01:35:18;;;;;;;;;5.00;3.00;;;;;17.21;64.79;101622.94;4975806;28;45668;-87
2022/05/21 01:37:44;;;;;;;;;2.00;2.00;;;;;17.21;64.90;101625.59;4973448;28;45723;-86
2022/05/21 01:40:11;;;;;;;;;1.00;1.00;;;;;17.11;64.92;101614.91;4960337;28;46789;-83
2022/05/21 01:42:36;;;;;;;;;2.25;2.00;;;;;17.01;64.75;101597.25;4945645;28;47204;-79
2022/05/21 01:45:03;;;;;;;;;2.00;2.00;;;;;17.13;64.83;101615.63;4955458;28;45734;-83
2022/05/21 01:47:31;;;;;;;;;3.50;3.00;;;;;17.11;64.87;101620.19;4972772;28;45849;-84
2022/05/21 01:49:57;;;;;;;;;5.25;4.25;;;;;17.02;64.78;101607.72;4973824;28;46743;-83
2022/05/21 01:52:22;;;;;;;;;4.00;3.25;;;;;16.93;65.40;101589.09;4974843;28;45952;-83
2022/05/21 01:54:48;;;;;;;;;3.00;3.00;;;;;17.05;65.00;101614.59;4972538;28;45652;-86
2022/05/21 01:57:13;;;;;;;;;4.00;3.00;;;;;17.07;65.41;101609.97;4975704;28;45798;-88
2022/05/21 01:59:39;;;;;;;;;3.00;3.00;;;;;17.08;65.11;101607.22;5047045;28;46255;-85
2022/05/21 02:02:06;;;;;;;;;2.00;2.00;;;;;17.13;65.17;101610.31;5054675;28;45984;-86
2022/05/21 02:04:31;;;;;;;;;2.25;2.25;;;;;17.17;64.87;101613.56;5055046;28;45629;-83
2022/05/21 02:06:57;;;;;;;;;2.00;2.00;;;;;17.12;65.00;101600.69;5037005;28;45689;-84
2022/05/21 02:09:23;;;;;;;;;3.00;2.75;;;;;17.22;65.11;101606.06;5057867;28;46790;-83
2022/05/21 02:11:48;;;;;;;;;4.75;3.00;;;;;17.17;65.06;101595.00;5058070;28;45817;-86
2022/05/21 02:14:14;;;;;;;;;4.75;3.00;;;;;17.12;64.67;101584.81;5056419;28;45622;-87
2022/05/21 02:16:40;;;;;;;;;4.75;3.00;;;;;17.17;64.75;101595.84;5056160;28;45901;-83
2022/05/21 02:19:06;;;;;;;;;5.00;3.00;;;;;17.22;64.32;101605.25;5055715;28;46869;-87
2022/05/21 02:21:34;;;;;;;;;2.75;2.75;;;;;17.25;64.70;101615.56;5054884;28;45856;-84
2022/05/21 02:24:00;;;;;;;;;2.75;2.50;;;;;17.22;64.65;101603.41;5054570;28;46002;-84
2022/05/21 02:26:25;;;;;;;;;3.00;3.00;;;;;17.21;64.80;101601.75;5053784;28;45736;-83
2022/05/21 02:28:51;;;;;;;;;2.00;2.00;;;;;17.23;64.49;101612.19;5036294;28;48234;-83
2022/05/21 02:31:17;;;;;;;;;2.00;2.00;;;;;17.19;64.63;101601.03;5054305;28;46072;-85
2022/05/21 02:33:43;;;;;;;;;2.00;2.00;;;;;17.30;64.54;101616.88;5054979;28;45519;-85
2022/05/21 02:36:09;;;;;;;;;3.00;3.00;;;;;17.31;63.93;101607.97;5054289;28;45439;-84
2022/05/21 02:41:20;;;;;;;;;1.75;1.75;;;;;17.32;64.23;101607.00;5053722;28;46015;-82
2022/05/21 02:43:46;;;;;;;;;3.25;2.00;;;;;17.36;64.19;101618.19;5055532;28;45680;-87
2022/05/21 02:46:13;;;;;;;;;3.00;3.00;;;;;17.37;64.16;101609.28;5053880;28;46079;-84
2022/05/21 02:48:40;;;;;;;;;3.25;2.00;;;;;17.39;63.72;101617.91;5052812;28;46369;-83
2022/05/21 02:51:06;;;;;;;;;2.00;2.00;;;;;17.35;64.17;101612.03;5054352;28;45910;-86
2022/05/21 02:53:32;;;;;;;;;6.00;4.00;;;;;17.26;63.86;101604.03;5035564;28;45758;-85
2022/05/21 02:56:03;;;;;;;;;2.25;2.00;;;;;17.37;63.98;101625.16;5053314;28;45784;-85
2022/05/21 02:58:29;;;;;;;;;4.00;3.00;;;;;17.31;63.76;101615.06;5052048;28;46845;-86
2022/05/21 03:00:54;;;;;;;;;2.00;2.00;;;;;17.30;63.99;101610.75;5052841;28;45912;-82
2022/05/21 03:03:19;;;;;;;;;3.00;2.00;;;;;17.28;63.48;101604.72;5053061;28;45592;-84
2022/05/21 03:05:45;;;;;;;;;2.00;1.75;;;;;17.26;64.01;101606.66;5054036;28;45703;-82
2022/05/21 03:10:56;;;;;;;;;3.00;2.00;;;;;17.32;63.71;101622.91;5048402;28;45657;-85
2022/05/21 03:13:22;;;;;;;;;2.50;2.50;;;;;17.32;63.85;101620.25;5047979;28;45815;-85
2022/05/21 03:15:48;;;;;;;;;4.00;3.00;;;;;17.31;63.63;101621.22;5052369;28;45865;-84
2022/05/21 03:18:15;;;;;;;;;3.00;3.00;;;;;17.31;63.59;101618.56;5052927;28;46527;-85
2022/05/21 03:20:41;;;;;;;;;3.00;2.25;;;;;17.20;63.54;101602.72;5053257;28;46306;-82
2022/05/21 03:23:07;;;;;;;;;4.50;4.00;;;;;17.25;63.39;101611.13;5052398;28;45580;-82
2022/05/21 03:25:33;;;;;;;;;2.00;2.00;;;;;17.22;63.40;101608.72;5052403;28;45750;-83
2022/05/21 03:27:59;;;;;;;;;2.25;2.00;;;;;17.18;63.82;101620.53;5034510;28;48279;-83
2022/05/21 03:30:27;;;;;;;;;4.75;4.75;;;;;17.15;63.82;101621.66;5051039;28;46106;-86
2022/05/21 03:32:53;;;;;;;;;4.00;3.00;;;;;17.15;63.72;101616.34;5051936;28;45891;-85
2022/05/21 03:35:19;;;;;;;;;4.00;3.50;;;;;17.16;63.50;101620.69;5052295;28;45641;-81
2022/05/21 03:37:46;;;;;;;;;3.00;2.00;;;;;17.12;64.04;101618.38;5051652;28;46798;-83
2022/05/21 03:40:15;;;;;;;;;4.25;3.00;;;;;17.11;63.83;101630.78;5052126;28;45715;-79
2022/05/21 03:42:46;;;;;;;;;3.75;3.00;;;;;17.11;63.65;101620.19;5042905;28;45634;-86
2022/05/21 03:45:12;;;;;;;;;2.75;2.00;;;;;17.11;63.67;101616.72;5043042;28;45623;-83
2022/05/21 03:47:41;;;;;;;;;4.00;3.00;;;;;17.11;64.04;101612.25;5053244;28;46855;-84
2022/05/21 03:50:11;;;;;;;;;2.50;2.00;;;;;17.13;64.06;101617.44;5050777;28;46415;-84
2022/05/21 03:52:36;;;;;;;;;3.25;3.00;;;;;17.07;63.97;101612.63;5044760;28;46095;-85
2022/05/21 03:55:02;;;;;;;;;3.00;3.00;;;;;17.05;64.05;101611.94;5034106;28;45926;-83
2022/05/21 03:57:28;;;;;;;;;3.50;3.50;;;;;17.06;63.99;101617.09;5040333;28;45834;-86
2022/05/21 03:59:54;;;;;;;;;3.00;1.50;;;;;17.08;63.90;101619.63;5033975;28;46238;-87
2022/05/21 04:02:19;;;;;;;;;3.00;2.00;;;;;17.09;63.96;101616.00;5051781;28;45758;-86
2022/05/21 04:04:45;;;;;;;;;3.25;2.50;;;;;17.09;63.93;101613.34;5052498;28;45832;-85
2022/05/21 04:07:10;;;;;;;;;2.00;2.00;;;;;17.12;63.19;101619.22;5052147;28;45688;-87
2022/05/21 04:09:36;;;;;;;;;3.75;2.75;;;;;17.13;63.43;101617.44;5052384;28;46051;-87
2022/05/21 04:12:03;;;;;;;;;4.75;3.00;;;;;17.09;63.37;101605.41;5053050;28;45896;-87
2022/05/21 04:14:29;;;;;;;;;3.00;2.00;;;;;17.11;63.63;101616.72;5053075;28;45592;-86
2022/05/21 04:16:57;;;;;;;;;2.25;2.00;;;;;17.09;63.57;101611.56;5038547;28;45641;-89
2022/05/21 04:19:23;;;;;;;;;2.75;2.75;;;;;17.16;63.80;101619.84;5052478;28;45479;-87
2022/05/21 04:21:48;;;;;;;;;2.75;2.00;;;;;17.15;63.60;101631.41;5035028;28;46070;-85
2022/05/21 04:24:14;;;;;;;;;2.25;2.25;;;;;17.15;63.54;101634.88;5052930;28;46086;-87
2022/05/21 04:26:39;;;;;;;;;2.75;2.00;;;;;17.11;63.44;101624.69;5052223;28;45867;-87
2022/05/21 04:29:05;;;;;;;;;2.50;2.50;;;;;17.22;63.33;101627.25;5052549;28;45656;-88
2022/05/21 04:31:30;;;;;;;;;3.00;2.25;;;;;17.17;63.30;101617.03;5052854;28;45641;-85
2022/05/21 04:33:56;;;;;;;;;2.00;2.00;;;;;17.20;63.33;101615.97;5052137;28;45760;-87
2022/05/21 04:36:22;;;;;;;;;4.00;2.00;;;;;17.23;63.66;101613.06;5053380;28;46364;-86
2022/05/21 04:38:51;;;;;;;;;2.75;2.75;;;;;17.26;63.33;101630.50;5050568;28;45819;-85
2022/05/21 04:41:18;;;;;;;;;2.00;2.00;;;;;17.18;63.39;101615.25;5053292;28;46012;-87
2022/05/21 04:43:44;;;;;;;;;3.50;3.50;;;;;17.23;62.90;101626.28;5053340;28;45978;-87
2022/05/21 04:46:11;;;;;;;;;2.25;2.00;;;;;17.19;62.50;101619.56;5053271;28;45811;-86
2022/05/21 04:48:39;;;;;;;;;2.25;2.25;;;;;17.27;62.65;101633.03;5035223;28;47042;-86
2022/05/21 04:51:05;;;;;;;;;3.00;2.25;;;;;17.24;63.07;101613.88;5053400;28;45513;-86
2022/05/21 04:53:32;;;;;;;;;2.50;2.00;;;;;17.28;62.78;101615.31;5037934;28;45587;-87
2022/05/21 04:55:57;;;;;;;;;4.00;1.50;;;;;17.29;63.06;101617.00;5038371;28;47519;-87
2022/05/21 04:58:23;;;;;;;;;2.50;2.50;;;;;17.24;63.01;101613.88;5056472;28;45583;-87
2022/05/21 05:00:48;;;;;;;;;2.00;2.00;;;;;17.23;62.59;101613.06;5055233;28;45632;-85
2022/05/21 05:03:16;;;;;;;;;2.00;1.00;;;;;17.34;62.60;101623.59;5057111;28;45609;-87
2022/05/21 05:05:43;;;;;;;;;2.00;2.00;;;;;17.35;62.70;101619.97;5058351;28;46619;-85
2022/05/21 05:08:09;;;;;;;;;3.00;1.25;;;;;17.37;62.38;101619.88;5057070;28;45906;-86
2022/05/21 05:10:36;;;;;;;;;3.00;2.00;;;;;17.38;61.94;101617.06;5051353;28;45717;-88
2022/05/21 05:13:03;;;;;;;;;3.00;2.50;;;;;17.41;61.38;101618.63;5050360;28;45531;-87
2022/05/21 05:15:28;;;;;;;;;2.25;2.00;;;;;17.34;61.42;101612.16;5058299;28;45652;-87
2022/05/21 05:18:05;;;;;;;;;2.00;1.25;;;;;17.42;61.85;101631.75;5059949;28;46214;-86
2022/05/21 05:20:31;;;;;;;;;3.50;2.50;;;;;17.40;61.89;101614.28;5038672;28;45699;-86
2022/05/21 05:22:57;;;;;;;;;2.75;2.50;;;;;17.44;62.00;101624.50;5056740;28;45783;-87
2022/05/21 05:25:23;;;;;;;;;3.25;3.00;;;;;17.46;62.03;101622.59;5056851;28;46599;-83
2022/05/21 05:27:50;;;;;;;;;2.25;2.00;;;;;17.43;61.82;101608.75;5057729;28;46182;-88
2022/05/21 05:30:17;;;;;;;;;4.25;3.75;;;;;17.40;61.97;101604.53;5059154;28;45703;-87
2022/05/21 05:32:43;;;;;;;;;4.75;4.25;;;;;17.52;62.10;101619.41;5045439;28;45878;-86
2022/05/21 05:35:09;;;;;;;;;6.00;5.75;;;;;17.54;62.23;101611.34;5057085;28;46436;-84
2022/05/21 05:37:35;;;;;;;;;4.00;4.00;;;;;17.56;62.32;101618.19;5057553;28;45995;-87
2022/05/21 05:40:01;;;;;;;;;6.00;5.00;;;;;17.58;62.21;101615.41;5058654;28;45668;-87
2022/05/21 05:42:26;;;;;;;;;5.25;4.00;;;;;17.60;62.39;101618.78;5061392;28;45754;-87
2022/05/21 05:44:52;;;;;;;;;3.50;3.00;;;;;17.57;62.71;101617.22;5060114;28;45641;-88
2022/05/21 05:47:17;;;;;;;;;4.00;3.50;;;;;17.67;62.11;101621.75;5060296;28;46269;-87
2022/05/21 05:49:43;;;;;;;;;3.75;3.75;;;;;17.68;62.33;101629.59;5060231;28;45952;-84
2022/05/21 05:52:11;;;;;;;;;4.50;4.00;;;;;17.66;62.25;101614.78;5061129;28;45844;-86
2022/05/21 05:54:37;;;;;;;;;5.00;3.50;;;;;17.63;62.36;101609.75;5058250;28;45804;-86
2022/05/21 05:57:03;;;;;;;;;5.00;4.25;;;;;17.69;62.53;101623.34;5040866;28;46775;-88
2022/05/21 06:04:56;;;;;;;;;6.00;4.25;;;;;17.72;62.08;101628.34;5055727;28;46066;-87
2022/05/21 06:07:22;;;;;;;;;5.00;3.25;;;;;17.78;62.57;101637.59;5056840;28;45606;-88
2022/05/21 06:09:48;;;;;;;;;4.50;3.00;;;;;17.77;62.03;101643.88;5055729;28;45733;-84
2022/05/21 06:12:14;;;;;;;;;5.50;4.00;;;;;17.72;62.19;101628.34;5055223;28;45810;-88
2022/05/21 06:14:41;;;;;;;;;3.50;3.00;;;;;17.76;62.38;101636.91;5047702;28;46566;-86
2022/05/21 06:17:07;;;;;;;;;3.00;3.00;;;;;17.68;62.24;101619.00;5050304;28;46285;-87
2022/05/21 06:19:32;;;;;;;;;3.75;3.00;;;;;17.78;61.73;101637.59;5053923;28;45717;-87
2022/05/21 06:22:03;;;;;;;;;2.75;2.25;;;;;17.78;61.99;101638.44;5049558;28;45834;-88
2022/05/21 06:24:28;;;;;;;;;3.00;3.00;;;;;17.78;62.28;101635.78;5049454;28;45606;-85
2022/05/21 06:26:54;;;;;;;;;3.00;3.00;;;;;17.69;62.40;101619.84;5036641;28;47855;-86
2022/05/21 06:29:19;;;;;;;;;3.25;3.25;;;;;17.82;61.71;101636.38;5055098;28;45991;-83
2022/05/21 06:31:45;;;;;;;;;4.00;3.25;;;;;17.82;61.68;101626.59;5055432;28;45929;-88
2022/05/21 06:34:11;;;;;;;;;3.00;2.75;;;;;17.81;62.36;101632.91;5055543;28;46665;-86
2022/05/21 06:36:37;;;;;;;;;4.00;4.00;;;;;17.75;61.85;101616.66;5041234;28;46073;-83
2022/05/21 06:39:03;;;;;;;;;4.00;3.00;;;;;17.78;62.37;101630.50;5053679;28;45904;-85
2022/05/21 06:41:31;;;;;;;;;3.75;3.00;;;;;17.74;62.25;101626.44;5054462;28;45644;-83
2022/05/21 06:43:56;;;;;;;;;3.25;2.75;;;;;17.78;61.95;101627.84;5035268;28;48279;-86
2022/05/21 06:46:22;;;;;;;;;3.25;3.00;;;;;17.79;61.99;101620.72;5053235;28;45748;-83
2022/05/21 06:48:47;;;;;;;;;2.00;1.75;;;;;17.85;62.28;101623.72;5035611;28;45964;-85
2022/05/21 06:51:13;;;;;;;;;3.25;2.75;;;;;17.79;62.22;101612.78;5047134;28;45874;-86
2022/05/21 06:53:40;;;;;;;;;2.25;2.00;;;;;17.96;61.72;101638.69;5053800;28;46481;-84
2022/05/21 06:56:11;;;;;;;;;2.75;2.75;;;;;17.90;61.90;101620.66;5046905;28;46037;-83
2022/05/21 06:58:37;;;;;;;;;2.25;2.00;;;;;17.99;61.54;101625.16;5033479;28;45723;-86
2022/05/21 07:01:03;;;;;;;;;2.25;2.25;;;;;18.04;61.11;101622.94;5054276;28;46353;-86
2022/05/21 07:03:29;;;;;;;;;4.00;3.00;;;;;18.04;61.13;101625.59;5048084;28;46446;-86
2022/05/21 07:08:38;;;;;;;;;2.50;2.00;;;;;18.17;61.65;101642.16;5042889;28;45700;-84
2022/05/21 07:11:03;;;;;;;;;2.50;2.00;;;;;18.14;60.25;101628.31;5056322;28;45765;-85
2022/05/21 07:13:30;;;;;;;;;4.00;3.00;;;;;18.20;60.44;101635.72;5052309;28;45913;-82
2022/05/21 07:15:56;;;;;;;;;3.75;2.75;;;;;18.23;60.31;101644.28;5054795;28;46030;-81
2022/05/21 07:18:26;;;;;;;;;3.00;2.00;;;;;18.23;60.23;101635.47;5054088;28;45487;-84
2022/05/21 07:20:53;;;;;;;;;2.00;2.00;;;;;18.25;60.47;101637.00;5063235;28;45519;-83
2022/05/21 07:23:20;;;;;;;;;3.00;3.00;;;;;18.32;60.61;101638.16;5067078;28;46026;-81
2022/05/21 07:25:47;;;;;;;;;3.00;2.25;;;;;18.34;60.75;101638.88;5040908;28;47962;-85
2022/05/21 07:28:13;;;;;;;;;2.00;2.00;;;;;18.41;60.41;101633.84;5059650;28;45717;-85
2022/05/21 07:30:40;;;;;;;;;2.00;1.00;;;;;18.36;59.71;101626.31;5054372;28;45573;-86
2022/05/21 07:33:09;;;;;;;;;2.75;2.75;;;;;18.51;59.93;101644.53;5055785;28;45716;-84
2022/05/21 07:35:37;;;;;;;;;3.00;2.00;;;;;18.53;60.29;101631.94;5054512;28;45940;-87
2022/05/21 07:38:05;;;;;;;;;3.00;2.00;;;;;18.59;59.62;101637.59;5053064;28;45797;-84
2022/05/21 07:40:31;;;;;;;;;3.00;2.25;;;;;18.62;60.03;101633.84;5031939;28;45568;-85
2022/05/21 07:42:57;;;;;;;;;2.00;2.00;;;;;18.70;59.75;101637.47;5033542;28;47659;-85
2022/05/21 07:45:23;;;;;;;;;3.25;2.75;;;;;18.73;59.50;101634.53;5052640;28;46306;-83
2022/05/21 07:47:49;;;;;;;;;2.25;2.25;;;;;18.78;60.09;101628.84;5052757;28;45715;-81
2022/05/21 07:50:16;;;;;;;;;3.25;3.00;;;;;18.90;60.00;101637.50;5034594;28;45949;-84
2022/05/21 07:52:42;;;;;;;;;3.25;2.75;;;;;18.92;59.18;101631.09;5053259;28;45776;-85
2022/05/21 07:55:09;;;;;;;;;5.75;5.00;;;;;18.95;59.15;101640.63;5053997;28;46440;-81
2022/05/21 07:57:41;;;;;;;;;4.00;3.00;;;;;18.99;59.24;101640.19;5053248;28;45639;-84
2022/05/21 08:00:10;;;;;;;;;1.75;1.00;;;;;18.99;59.41;101637.53;5052582;28;45675;-85
2022/05/21 08:02:40;;;;;;;;;3.00;2.00;;;;;19.07;59.41;101631.50;5052429;28;46453;-84
2022/05/21 08:05:05;;;;;;;;;2.75;2.25;;;;;19.02;58.08;101613.34;5051697;28;46100;-82
2022/05/21 08:07:31;;;;;;;;;2.75;2.00;;;;;19.15;58.55;101635.19;5052392;28;45773;-85
2022/05/21 08:09:57;;;;;;;;;3.00;2.75;;;;;19.17;58.56;101632.34;5052117;28;45648;-81
2022/05/21 08:12:22;;;;;;;;;2.00;2.00;;;;;19.19;58.28;101623.28;5050903;28;45762;-82
2022/05/21 08:14:47;;;;;;;;;3.00;2.00;;;;;19.29;57.75;101628.59;5053809;28;46277;-80
2022/05/21 08:17:13;;;;;;;;;3.00;2.50;;;;;19.35;58.20;101627.19;5056606;28;45588;-80
2022/05/21 08:19:40;;;;;;;;;3.00;2.25;;;;;19.39;58.13;101625.91;5057557;28;45441;-83
2022/05/21 08:27:34;;;;;;;;;3.50;3.25;;;;;19.61;58.11;101613.19;5054599;28;45599;-85
2022/05/21 08:29:59;;;;;;;;;2.25;2.25;;;;;19.62;58.40;101603.41;5056266;28;45823;-84
2022/05/21 08:32:25;;;;;;;;;3.00;2.00;;;;;19.65;57.66;101606.59;5056594;28;45507;-87
2022/05/21 08:34:52;;;;;;;;;3.00;2.00;;;;;19.73;57.40;101607.72;5056023;28;45669;-81
2022/05/21 08:37:19;;;;;;;;;2.00;1.00;;;;;19.83;57.24;101616.50;5038081;28;45670;-82
2022/05/21 08:39:45;;;;;;;;;4.50;2.00;;;;;19.83;56.77;101609.38;5056770;28;45665;-90
2022/05/21 08:42:15;;;;;;;;;3.00;2.00;;;;;19.80;57.28;101607.00;5039153;28;47658;-85
2022/05/21 08:44:52;;;;;;;;;2.00;2.00;;;;;19.93;56.37;101612.84;5056199;28;46356;-86
2022/05/21 08:47:27;;;;;;;;;2.50;1.75;;;;;19.88;56.83;101599.13;5056913;28;45805;-85
2022/05/21 08:49:59;;;;;;;;;3.00;2.00;;;;;20.02;56.69;101619.13;5056475;28;45701;-85
2022/05/21 08:52:42;;;;;;;;;9.00;9.00;;;;;20.07;56.49;101616.88;5038159;28;48246;-85
2022/05/21 08:55:11;;;;;;;;;2.50;2.00;;;;;20.02;55.98;101604.00;5057318;28;46147;-86
2022/05/21 08:57:46;;;;;;;;;2.00;2.00;;;;;20.11;55.61;101618.25;5056211;28;45588;-86
2022/05/21 09:00:18;;;;;;;;;3.00;2.00;;;;;20.03;56.11;101604.81;5056182;28;45640;-79
2022/05/21 09:02:43;;;;;;;;;2.25;2.00;;;;;20.07;55.65;101606.22;5039171;28;46912;-85
2022/05/21 09:05:12;;;;;;;;;1.50;1.25;;;;;20.10;55.20;101613.91;5043466;28;45640;-84
2022/05/21 09:08:02;;;;;;;;;1.25;1.00;;;;;20.07;54.54;101609.72;5033457;28;46715;-81
2022/05/21 09:10:52;;;;;;;;;1.00;1.00;;;;;20.02;54.60;101604.00;5055996;28;45581;-81
2022/05/21 09:13:25;;;;;;;;;2.00;1.00;;;;;19.99;54.33;101593.63;5055808;28;45765;-83
2022/05/21 09:18:35;;;;;;;;;2.75;2.00;;;;;20.03;54.46;101600.34;5063363;28;45774;-78
2022/05/21 09:21:05;;;;;;;;;2.00;1.00;;;;;19.99;53.59;101590.13;5061200;28;45698;-85
2022/05/21 09:23:54;;;;;;;;;1.00;1.00;;;;;20.04;53.45;101591.38;5057099;28;45877;-86
2022/05/21 09:26:23;;;;;;;;;1.00;1.00;;;;;20.02;53.76;101584.53;5055392;28;46476;-87
2022/05/21 09:28:49;;;;;;;;;1.25;1.25;;;;;19.99;53.51;101574.19;5056513;28;45772;-87
2022/05/21 09:31:28;;;;;;;;;0.75;0.75;;;;;19.95;53.30;101570.13;5057611;28;45711;-88
2022/05/21 09:33:55;;;;;;;;;2.25;1.50;;;;;20.02;53.46;101581.88;5057529;28;45585;-88
2022/05/21 09:36:32;;;;;;;;;1.50;1.50;;;;;20.06;53.39;101576.13;5044188;28;46131;-83
2022/05/21 09:38:58;;;;;;;;;1.25;1.00;;;;;20.00;53.55;101552.75;5055494;28;46058;-90
2022/05/21 09:41:30;;;;;;;;;2.00;2.00;;;;;20.13;53.09;101562.22;5058996;28;46096;-81
2022/05/21 09:47:08;;;;;;;;;1.00;1.00;;;;;20.19;53.22;101577.59;5070994;28;46243;-81
2022/05/21 09:49:34;;;;;;;;;1.50;1.00;;;;;20.18;52.93;101570.59;5064699;28;45615;-82
2022/05/21 09:52:03;;;;;;;;;1.50;1.50;;;;;20.18;53.27;101573.25;5057603;28;45704;-81
2022/05/21 09:54:34;;;;;;;;;1.50;1.00;;;;;20.15;52.96;101557.56;5033973;28;47361;-88
2022/05/21 09:57:00;;;;;;;;;1.50;1.50;;;;;20.25;52.97;101566.34;5052406;28;45927;-88
2022/05/21 09:59:29;;;;;;;;;1.50;1.50;;;;;20.27;53.10;101572.38;5052847;28;45662;-83
2022/05/21 10:01:59;;;;;;;;;3.00;2.00;;;;;20.28;52.76;101566.91;5047220;28;45661;-85
2022/05/21 10:04:43;;;;;;;;;2.00;1.25;;;;;20.29;52.90;101563.25;5057682;28;46608;-86
2022/05/21 10:13:13;;;;;;;;;2.50;2.00;;;;;20.34;53.35;101560.19;5057707;28;45691;-85
2022/05/21 10:15:48;;;;;;;;;2.75;2.00;;;;;20.36;53.13;101552.88;5046333;28;45961;-79
2022/05/21 10:18:29;;;;;;;;;3.00;1.50;;;;;20.44;53.34;101553.81;5038464;28;46808;-82
2022/05/21 10:21:02;;;;;;;;;1.50;1.50;;;;;20.47;53.40;101553.50;5056777;28;45653;-81
2022/05/21 10:23:30;;;;;;;;;3.00;1.75;;;;;20.56;53.71;101551.78;5038144;28;45704;-82
2022/05/21 10:26:07;;;;;;;;;2.75;1.75;;;;;20.59;53.32;101543.47;5053939;28;45691;-87
2022/05/21 10:28:53;;;;;;;;;4.00;3.25;;;;;20.70;53.81;101556.56;5052485;28;46200;-81
2022/05/21 10:31:36;;;;;;;;;3.25;2.25;;;;;20.70;53.31;101542.41;5041087;28;45925;-84
2022/05/21 10:34:33;;;;;;;;;2.00;2.00;;;;;20.80;52.53;101544.03;5039165;28;45483;-86
2022/05/21 10:37:22;;;;;;;;;1.75;1.75;;;;;20.83;52.31;101549.06;5031247;28;45779;-81
2022/05/21 10:40:07;;;;;;;;;0.00;0.00;;;;;20.79;52.46;101541.50;5038055;28;46358;-82
2022/05/21 10:43:01;;;;;;;;;2.00;1.50;;;;;20.91;51.83;101548.28;5038317;28;45734;-85
2022/05/21 10:45:34;;;;;;;;;1.75;0.75;;;;;20.93;52.47;101547.16;5038839;28;45649;-82
2022/05/21 10:48:14;;;;;;;;;1.50;0.50;;;;;20.99;52.27;101548.38;5033222;28;47398;-81
2022/05/21 10:51:02;;;;;;;;;2.00;1.00;;;;;21.03;51.55;101540.88;5050842;28;46241;-84
2022/05/21 10:53:58;;;;;;;;;3.00;2.00;;;;;20.95;51.65;101523.84;5050818;28;45622;-82
2022/05/21 10:56:39;;;;;;;;;2.00;2.00;;;;;21.01;51.96;101524.19;5031337;28;45888;-82
2022/05/21 10:59:26;;;;;;;;;2.50;2.00;;;;;21.15;51.27;101535.22;5032303;28;46483;-84
2022/05/21 11:02:30;;;;;;;;;2.50;2.00;;;;;21.12;51.65;101508.81;5048829;28;46428;-84
2022/05/21 11:05:33;;;;;;;;;3.00;2.00;;;;;21.25;51.87;101524.44;5023431;28;45747;-81
2022/05/21 11:08:16;;;;;;;;;2.75;1.75;;;;;21.26;51.28;101515.47;5051602;28;45658;-87
2022/05/21 11:11:19;;;;;;;;;2.00;1.75;;;;;21.29;51.31;101526.63;5050300;28;45676;-82
2022/05/21 11:14:08;;;;;;;;;2.00;2.00;;;;;21.35;51.03;101522.50;5023406;28;47557;-84
2022/05/21 11:16:41;;;;;;;;;2.25;1.75;;;;;21.33;51.72;101503.16;5045345;28;45667;-81
2022/05/21 11:19:39;;;;;;;;;2.25;1.00;;;;;21.48;50.75;101508.75;5046861;28;45771;-89
2022/05/21 11:22:09;;;;;;;;;1.25;1.25;;;;;21.52;51.17;101510.13;5050534;28;45577;-84
2022/05/21 11:24:50;;;;;;;;;2.00;1.00;;;;;21.55;50.67;101513.28;5048313;28;45841;-88
2022/05/21 11:27:25;;;;;;;;;2.25;2.00;;;;;21.47;50.64;101488.44;5054760;28;45492;-85
2022/05/21 11:30:10;;;;;;;;;1.00;1.00;;;;;21.59;50.67;101503.16;5035775;28;45641;-83
2022/05/21 11:38:31;;;;;;;;;2.00;2.00;;;;;21.67;50.67;101497.84;5053745;28;45656;-84
2022/05/21 11:46:57;;;;;;;;;2.00;1.00;;;;;21.80;50.35;101470.75;5044533;28;45696;-82
2022/05/21 11:49:45;;;;;;;;;3.00;2.00;;;;;21.94;49.72;101486.13;5054156;28;45672;-85
2022/05/21 11:52:26;;;;;;;;;1.00;1.00;;;;;21.96;49.47;101476.19;5030322;28;45508;-80
2022/05/21 11:54:55;;;;;;;;;1.00;1.00;;;;;21.98;49.42;101472.34;5062350;28;45639;-80
2022/05/21 11:57:44;;;;;;;;;1.00;0.00;;;;;22.02;49.08;101475.53;5059128;28;45613;-83
2022/05/21 12:00:29;;;;;;;;;2.75;2.25;;;;;22.03;49.71;101472.69;5013339;28;45758;-84
2022/05/21 12:02:54;;;;;;;;;1.75;1.75;;;;;22.06;49.09;101471.53;4982583;28;45631;-85
2022/05/21 12:05:40;;;;;;;;;1.75;1.75;;;;;22.09;48.90;101461.34;4991908;28;46489;-81
2022/05/21 12:08:22;;;;;;;;;2.00;2.00;;;;;22.12;49.38;101462.88;4981299;28;46268;-85
2022/05/21 12:11:24;;;;;;;;;2.50;1.25;;;;;22.16;49.75;101456.22;4992840;28;45640;-83
2022/05/21 12:14:20;;;;;;;;;1.75;1.25;;;;;22.25;49.86;101454.38;4961428;28;45970;-89
2022/05/21 12:16:52;;;;;;;;;2.00;1.00;;;;;22.25;49.27;101443.69;4995960;28;46587;-84
2022/05/21 12:19:43;;;;;;;;;2.00;1.25;;;;;22.38;49.58;101452.91;4992519;28;46034;-88
2022/05/21 12:22:09;;;;;;;;;2.00;1.00;;;;;22.34;49.29;101437.41;4981463;28;46133;-87